Songa Wave — ZGGP4 — position and weather

sailwx.info

Track history (hours):
 
Tides and Currents Weather Stations Pressure Air Temp Water Temp Dewpoint Dewpoint Depression Visibility Wind Speed Wind Dir Waves Ship Positions

Songa Wave

Last reported at 2018-Jun-17 00:47 UTC. Time now 2018-Jun-23 21:38 UTC.
Position N 37°22' E 025°55'.

Length 200 m; draft 12.5 m.

Type: Cargo ship. MMSI: 319116900.

Date/timePositionNaut miles runAvg speedWind from/ knotsBaromVisibWave heightAir tempDewpointWater temp
2018-Jun-17 00:47N 37°22' E 025°55'412.6
2018-Jun-17 00:30N 37°25' E 025°53'612.3
2018-Jun-16 23:59N 37°31' E 025°50'1312.4
2018-Jun-16 22:57N 37°44' E 025°48'25310.3
2018-Jun-15 22:26N 41°07' E 029°04'5 9.2
2018-Jun-15 21:50N 41°12' E 029°07'310.4
2018-Jun-15 21:30N 41°15' E 029°08'8 8.5
2018-Jun-15 20:36N 41°22' E 029°04'3 8.9
2018-Jun-15 20:14N 41°25' E 029°01'2 8.6
2018-Jun-15 20:00N 41°26' E 028°59'3 5.3
2018-Jun-15 19:30N 41°28' E 028°56'0 0.6
2018-Jun-15 19:00N 41°28' E 028°56'0 0.7
2018-Jun-15 18:30N 41°28' E 028°57'0 0.8
2018-Jun-15 18:00N 41°29' E 028°57'0 0.7
2018-Jun-15 17:30N 41°29' E 028°57'0 0.7
2018-Jun-15 17:00N 41°29' E 028°57'0 0.6
2018-Jun-15 16:30N 41°30' E 028°57'0 0.7
2018-Jun-15 16:00N 41°30' E 028°58'0 0.6
2018-Jun-15 15:30N 41°30' E 028°58'0 0.6
2018-Jun-15 15:00N 41°30' E 028°58'0 0.7
2018-Jun-15 14:30N 41°31' E 028°58'0 0.8
2018-Jun-15 14:00N 41°31' E 028°58'1 2.5
2018-Jun-15 13:30N 41°32' E 028°57'5 9.3
2018-Jun-15 12:58N 41°36' E 028°53'1 1.4
2018-Jun-15 12:30N 41°37' E 028°53'0 0.5
2018-Jun-15 12:00N 41°37' E 028°53'0 0.6
2018-Jun-15 11:30N 41°37' E 028°53'0 0.7
2018-Jun-15 11:00N 41°37' E 028°53'0 0.7
2018-Jun-15 10:21N 41°38' E 028°52'0 0.6
2018-Jun-15 10:00N 41°38' E 028°52'0 0.5
2018-Jun-15 09:27N 41°38' E 028°52'0 0.6
2018-Jun-15 08:45N 41°38' E 028°51'88 9.8
2018-Jun-14 23:46N 42°04' E 030°45'312.5
2018-Jun-14 23:29N 42°06' E 030°49'12221.1
2018-Jun-14 17:42N 42°59' E 033°17'5 2.4
2018-Jun-14 15:28N 43°01' E 033°24'1 2.3
2018-Jun-14 14:59N 43°02' E 033°25'1 2.0
2018-Jun-14 14:31N 43°02' E 033°27'1 2.0
2018-Jun-14 13:54N 43°03' E 033°28'11111.3
2018-Jun-14 04:04N 43°52' E 035°46'111.9
2018-Jun-14 04:00N 43°52' E 035°47'6912.4
2018-Jun-13 22:24N 44°22' E 037°14'512.6
2018-Jun-13 22:00N 44°25' E 037°20'612.4
2018-Jun-13 21:30N 44°27' E 037°28'612.4
2018-Jun-13 21:00N 44°30' E 037°36'612.4
2018-Jun-13 20:30N 44°33' E 037°43'612.2
2018-Jun-13 20:00N 44°34' E 037°52'2 4.2
2018-Jun-13 19:30N 44°35' E 037°54'0 0.2
2018-Jun-13 18:57N 44°35' E 037°54'0 0.0
2018-Jun-13 18:30N 44°35' E 037°54'0 0.0
2018-Jun-13 18:00N 44°35' E 037°54'0 0.0
2018-Jun-13 17:30N 44°35' E 037°54'0 0.0
2018-Jun-13 17:00N 44°35' E 037°54'0 0.0
2018-Jun-13 16:30N 44°35' E 037°54'0 0.0
2018-Jun-13 16:00N 44°35' E 037°54'0 0.0
2018-Jun-13 15:27N 44°35' E 037°54'0 0.0
2018-Jun-13 15:00N 44°35' E 037°54'0 0.0
2018-Jun-13 14:30N 44°35' E 037°54'0 0.0
2018-Jun-13 14:00N 44°35' E 037°54'0 0.0
2018-Jun-13 13:30N 44°35' E 037°54'0 0.0
2018-Jun-13 13:00N 44°35' E 037°54'0 0.0
2018-Jun-13 12:30N 44°35' E 037°54'0 0.1
2018-Jun-13 12:00N 44°35' E 037°54'0 0.2
2018-Jun-13 11:30N 44°35' E 037°54'1 1.3
2018-Jun-13 11:00N 44°35' E 037°54'4 7.1
2018-Jun-13 10:30N 44°38' E 037°52'4 9.0
2018-Jun-13 10:00N 44°42' E 037°49'2 3.1
2018-Jun-13 09:31N 44°44' E 037°47'0 0.5
2018-Jun-13 09:00N 44°44' E 037°47'0 0.0
2018-Jun-13 08:30N 44°44' E 037°47'0 0.0
2018-Jun-13 08:00N 44°44' E 037°47'0 0.0
2018-Jun-13 07:30N 44°44' E 037°47'0 0.0
2018-Jun-13 07:00N 44°44' E 037°47'0 0.0
2018-Jun-13 06:30N 44°44' E 037°47'0 0.0
2018-Jun-13 06:00N 44°44' E 037°47'0 0.0
2018-Jun-13 05:30N 44°44' E 037°47'0 0.0
2018-Jun-13 05:00N 44°44' E 037°47'0 0.0
2018-Jun-13 04:30N 44°44' E 037°47'0 0.0
2018-Jun-13 04:00N 44°44' E 037°47'0 0.0
2018-Jun-13 03:30N 44°44' E 037°47'0 0.0
2018-Jun-13 03:00N 44°44' E 037°47'0 0.0
2018-Jun-13 02:30N 44°44' E 037°47'0 0.0
2018-Jun-13 02:00N 44°44' E 037°47'0 0.0
2018-Jun-13 01:30N 44°44' E 037°47'0 0.0
2018-Jun-13 01:00N 44°44' E 037°47'0 0.0
2018-Jun-13 00:30N 44°44' E 037°47'0 0.0
2018-Jun-13 00:00N 44°44' E 037°47'0 0.0
2018-Jun-12 23:30N 44°44' E 037°47'0 0.0
2018-Jun-12 23:00N 44°44' E 037°47'0 0.0
2018-Jun-12 22:30N 44°44' E 037°47'0 0.0
2018-Jun-12 22:00N 44°44' E 037°47'0 0.0
2018-Jun-12 21:30N 44°44' E 037°47'0 0.0
2018-Jun-12 21:00N 44°44' E 037°47'0 0.0
2018-Jun-12 20:30N 44°44' E 037°47'0 0.0
2018-Jun-12 20:00N 44°44' E 037°47'0 0.0
2018-Jun-12 19:30N 44°44' E 037°47'0 0.0
2018-Jun-12 19:00N 44°44' E 037°47'0 0.0
2018-Jun-12 18:30N 44°44' E 037°47'0 0.0
2018-Jun-12 18:00N 44°44' E 037°47'0 0.0
2018-Jun-12 17:30N 44°44' E 037°47'0 0.0
2018-Jun-12 17:00N 44°44' E 037°47'0 0.0
2018-Jun-12 16:30N 44°44' E 037°47'0 0.0
2018-Jun-12 16:00N 44°44' E 037°47'0 0.0
2018-Jun-12 15:30N 44°44' E 037°47'0 0.0
2018-Jun-12 15:00N 44°44' E 037°47'0 0.0
2018-Jun-12 14:30N 44°44' E 037°47'0 0.0
2018-Jun-12 14:00N 44°44' E 037°47'0 0.0
2018-Jun-12 13:30N 44°44' E 037°47'0 0.0
2018-Jun-12 13:00N 44°44' E 037°47'0 0.0
2018-Jun-12 12:30N 44°44' E 037°47'0 0.0
2018-Jun-12 12:00N 44°44' E 037°47'0 0.0
2018-Jun-12 11:30N 44°44' E 037°47'0 0.0
2018-Jun-12 11:00N 44°44' E 037°47'0 0.0
2018-Jun-12 10:30N 44°44' E 037°47'0 0.0
2018-Jun-12 10:00N 44°44' E 037°47'0 0.0
2018-Jun-12 09:30N 44°44' E 037°47'0 0.0
2018-Jun-12 08:57N 44°44' E 037°47'0 0.0
2018-Jun-12 08:30N 44°44' E 037°47'0 0.0
2018-Jun-12 07:57N 44°44' E 037°47'0 0.0
2018-Jun-12 07:30N 44°44' E 037°47'0 0.0
2018-Jun-12 07:00N 44°44' E 037°47'0 0.0
2018-Jun-12 06:30N 44°44' E 037°47'0 0.0
2018-Jun-12 06:00N 44°44' E 037°47'0 0.0
2018-Jun-12 05:30N 44°44' E 037°47'0 0.0
2018-Jun-12 05:00N 44°44' E 037°47'0 0.0
2018-Jun-12 04:27N 44°44' E 037°47'0 0.0
2018-Jun-12 04:00N 44°44' E 037°47'0 0.0
2018-Jun-12 03:30N 44°44' E 037°47'0 0.0
2018-Jun-12 03:00N 44°44' E 037°47'0 0.0
2018-Jun-12 02:30N 44°44' E 037°47'0 0.0
2018-Jun-12 02:00N 44°44' E 037°47'0 0.0
2018-Jun-12 01:30N 44°44' E 037°47'0 0.0
2018-Jun-12 01:00N 44°44' E 037°47'0 0.0
2018-Jun-12 00:30N 44°44' E 037°47'0 0.0
2018-Jun-12 00:00N 44°44' E 037°47'0 0.0
2018-Jun-11 23:30N 44°44' E 037°47'0 0.0
2018-Jun-11 23:00N 44°44' E 037°47'0 0.0
2018-Jun-11 22:30N 44°44' E 037°47'0 0.0
2018-Jun-11 22:00N 44°44' E 037°47'0 0.0
2018-Jun-11 21:30N 44°44' E 037°47'0 0.0
2018-Jun-11 21:00N 44°44' E 037°47'0 0.0
2018-Jun-11 20:27N 44°44' E 037°47'0 0.0
2018-Jun-11 20:00N 44°44' E 037°47'0 0.0
2018-Jun-11 19:30N 44°44' E 037°47'0 0.0
2018-Jun-11 19:00N 44°44' E 037°47'0 0.0
2018-Jun-11 18:27N 44°44' E 037°47'0 0.0
2018-Jun-11 18:00N 44°44' E 037°47'0 0.0
2018-Jun-11 17:30N 44°44' E 037°47'0 0.0
2018-Jun-11 17:00N 44°44' E 037°47'0 0.0
2018-Jun-11 16:30N 44°44' E 037°47'0 0.0
2018-Jun-11 16:00N 44°44' E 037°47'0 0.0
2018-Jun-11 15:30N 44°44' E 037°47'0 0.0
2018-Jun-11 15:00N 44°44' E 037°47'0 0.0
2018-Jun-11 14:30N 44°44' E 037°47'0 0.0
2018-Jun-11 14:00N 44°44' E 037°47'0 0.0
2018-Jun-11 13:30N 44°44' E 037°47'0 0.0
2018-Jun-11 13:00N 44°44' E 037°47'0 0.0
2018-Jun-11 12:30N 44°44' E 037°47'0 0.0
2018-Jun-11 12:00N 44°44' E 037°47'0 0.0
2018-Jun-11 11:30N 44°44' E 037°47'0 0.0
2018-Jun-11 11:00N 44°44' E 037°47'0 0.0
2018-Jun-11 10:30N 44°44' E 037°47'0 0.0
2018-Jun-11 10:00N 44°44' E 037°47'0 0.0
2018-Jun-11 09:30N 44°44' E 037°47'0 0.0
2018-Jun-11 09:00N 44°44' E 037°47'0 0.0
2018-Jun-11 08:30N 44°44' E 037°47'0 0.0
2018-Jun-11 08:00N 44°44' E 037°47'0 0.0
2018-Jun-11 07:30N 44°44' E 037°47'0 0.0
2018-Jun-11 07:00N 44°44' E 037°47'0 0.0
2018-Jun-11 06:30N 44°44' E 037°47'0 0.0
2018-Jun-11 06:00N 44°44' E 037°47'0 0.0
2018-Jun-11 05:30N 44°44' E 037°47'0 0.0
2018-Jun-11 05:00N 44°44' E 037°47'0 0.0
2018-Jun-11 04:30N 44°44' E 037°47'0 0.0
2018-Jun-11 04:00N 44°44' E 037°47'0 0.0
2018-Jun-11 03:30N 44°44' E 037°47'0 0.0
2018-Jun-11 03:00N 44°44' E 037°47'0 0.0
2018-Jun-11 02:30N 44°44' E 037°47'0 0.0
2018-Jun-11 02:00N 44°44' E 037°47'0 0.0
2018-Jun-11 01:30N 44°44' E 037°47'0 0.0
2018-Jun-11 01:00N 44°44' E 037°47'0 0.0
2018-Jun-11 00:30N 44°44' E 037°47'0 0.0
2018-Jun-11 00:00N 44°44' E 037°47'0 0.0
2018-Jun-10 23:30N 44°44' E 037°47'0 0.0
2018-Jun-10 23:00N 44°44' E 037°47'0 0.0
2018-Jun-10 22:30N 44°44' E 037°47'0 0.0
2018-Jun-10 22:00N 44°44' E 037°47'0 0.0
2018-Jun-10 21:30N 44°44' E 037°47'0 0.0
2018-Jun-10 21:00N 44°44' E 037°47'0 0.0
2018-Jun-10 20:30N 44°44' E 037°47'0 0.0
2018-Jun-10 20:00N 44°44' E 037°47'0 0.0
2018-Jun-10 19:30N 44°44' E 037°47'0 0.0
2018-Jun-10 19:00N 44°44' E 037°47'0 0.0
2018-Jun-10 18:30N 44°44' E 037°47'0 0.0
2018-Jun-10 18:00N 44°44' E 037°47'0 0.0
2018-Jun-10 17:30N 44°44' E 037°47'0 0.0
2018-Jun-10 17:00N 44°44' E 037°47'0 0.0
2018-Jun-10 16:27N 44°44' E 037°47'0 0.0
2018-Jun-10 16:00N 44°44' E 037°47'0 0.0
2018-Jun-10 15:30N 44°44' E 037°47'0 0.0
2018-Jun-10 15:00N 44°44' E 037°47'0 0.0
2018-Jun-10 14:30N 44°44' E 037°47'0 0.0
2018-Jun-10 13:30N 44°44' E 037°47'0 0.0
2018-Jun-10 13:00N 44°44' E 037°47'0 0.0
2018-Jun-10 12:30N 44°44' E 037°47'0 0.0
2018-Jun-10 12:00N 44°44' E 037°47'0 0.0
2018-Jun-10 11:30N 44°44' E 037°47'0 0.0
2018-Jun-10 11:00N 44°44' E 037°47'0 0.0
2018-Jun-10 10:30N 44°44' E 037°47'0 0.0
2018-Jun-10 10:00N 44°44' E 037°47'0 0.0
2018-Jun-10 09:30N 44°44' E 037°47'0 0.0
2018-Jun-10 09:00N 44°44' E 037°47'0 0.0
2018-Jun-10 08:30N 44°44' E 037°47'0 0.0
2018-Jun-10 08:00N 44°44' E 037°47'0 0.0
2018-Jun-10 07:30N 44°44' E 037°47'0 0.0
2018-Jun-10 07:00N 44°44' E 037°47'0 0.0
2018-Jun-10 06:27N 44°44' E 037°47'0 0.0
2018-Jun-10 06:00N 44°44' E 037°47'0 0.0
2018-Jun-10 05:30N 44°44' E 037°47'0 0.0
2018-Jun-10 05:00N 44°44' E 037°47'0 0.0
2018-Jun-10 04:30N 44°44' E 037°47'0 0.0
2018-Jun-10 04:00N 44°44' E 037°47'0 0.0
2018-Jun-10 03:30N 44°44' E 037°47'0 0.0
2018-Jun-10 03:00N 44°44' E 037°47'0 0.0
2018-Jun-10 02:30N 44°44' E 037°47'0 0.0
2018-Jun-10 02:00N 44°44' E 037°47'0 0.0
2018-Jun-10 01:30N 44°44' E 037°47'0 0.0
2018-Jun-10 01:00N 44°44' E 037°47'0 0.0
2018-Jun-10 00:30N 44°44' E 037°47'0 0.0
2018-Jun-10 00:00N 44°44' E 037°47'0 0.0
2018-Jun-09 23:30N 44°44' E 037°47'0 0.0
2018-Jun-09 23:00N 44°44' E 037°47'0 0.0
2018-Jun-09 22:27N 44°44' E 037°47'0 0.0
2018-Jun-09 22:00N 44°44' E 037°47'0 0.0
2018-Jun-09 21:30N 44°44' E 037°47'0 0.0
2018-Jun-09 21:00N 44°44' E 037°47'0 0.0
2018-Jun-09 20:27N 44°44' E 037°47'0 0.0
2018-Jun-09 20:00N 44°44' E 037°47'0 0.0
2018-Jun-09 19:30N 44°44' E 037°47'0 0.0
2018-Jun-09 19:00N 44°44' E 037°47'0 0.0
2018-Jun-09 18:30N 44°44' E 037°47'0 0.0
2018-Jun-09 18:00N 44°44' E 037°47'0 0.0
2018-Jun-09 17:30N 44°44' E 037°47'0 0.0
2018-Jun-09 17:00N 44°44' E 037°47'0 0.0
2018-Jun-09 16:30N 44°44' E 037°47'0 0.0
2018-Jun-09 16:00N 44°44' E 037°47'0 0.0
2018-Jun-09 15:30N 44°44' E 037°47'0 0.0
2018-Jun-09 14:30N 44°44' E 037°47'0 0.0
2018-Jun-09 14:00N 44°44' E 037°47'0 0.0
2018-Jun-09 13:30N 44°44' E 037°47'0 0.0
2018-Jun-09 13:00N 44°44' E 037°47'0 0.0
2018-Jun-09 12:30N 44°44' E 037°47'0 0.0
2018-Jun-09 12:00N 44°44' E 037°47'0 0.0
2018-Jun-09 11:30N 44°44' E 037°47'0 0.0
2018-Jun-09 11:00N 44°44' E 037°47'0 0.0
2018-Jun-09 10:27N 44°44' E 037°47'0 0.0
2018-Jun-09 10:00N 44°44' E 037°47'0 0.0
2018-Jun-09 09:30N 44°44' E 037°47'0 0.0
2018-Jun-09 08:57N 44°44' E 037°47'0 0.0
2018-Jun-09 08:30N 44°44' E 037°47'0 0.0
2018-Jun-09 08:00N 44°44' E 037°47'0 0.0
2018-Jun-09 07:30N 44°44' E 037°47'0 0.0
2018-Jun-09 07:00N 44°44' E 037°47'0 0.0
2018-Jun-09 06:30N 44°44' E 037°47'0 0.0
2018-Jun-09 06:00N 44°44' E 037°47'0 0.0
2018-Jun-09 05:30N 44°44' E 037°47'0 0.0
2018-Jun-09 05:00N 44°44' E 037°47'0 0.0
2018-Jun-09 04:30N 44°44' E 037°47'0 0.0
2018-Jun-09 04:00N 44°44' E 037°47'0 0.0
2018-Jun-09 03:30N 44°44' E 037°47'0 0.0
2018-Jun-09 03:00N 44°44' E 037°47'0 0.0
2018-Jun-09 02:30N 44°44' E 037°47'0 0.0
2018-Jun-09 01:54N 44°44' E 037°47'0 0.0
2018-Jun-09 01:30N 44°44' E 037°47'0 0.0
2018-Jun-09 01:00N 44°44' E 037°47'0 0.0
2018-Jun-09 00:30N 44°44' E 037°47'0 0.0
2018-Jun-09 00:00N 44°44' E 037°47'0 0.0
2018-Jun-08 23:30N 44°44' E 037°47'0 0.0
2018-Jun-08 23:00N 44°44' E 037°47'0 0.0
2018-Jun-08 22:30N 44°44' E 037°47'0 0.0
2018-Jun-08 22:00N 44°44' E 037°47'0 0.0
2018-Jun-08 21:30N 44°44' E 037°47'0 0.0
2018-Jun-08 20:54N 44°44' E 037°47'0 0.0
2018-Jun-08 20:30N 44°44' E 037°47'0 0.0
2018-Jun-08 20:00N 44°44' E 037°47'0 0.0
2018-Jun-08 19:30N 44°44' E 037°47'0 0.0
2018-Jun-08 19:00N 44°44' E 037°47'0 0.0
2018-Jun-08 18:30N 44°44' E 037°47'0 0.0
2018-Jun-08 18:00N 44°44' E 037°47'0 0.0
2018-Jun-08 17:30N 44°44' E 037°47'0 0.0
2018-Jun-08 17:00N 44°44' E 037°47'0 0.0
2018-Jun-08 16:30N 44°44' E 037°47'0 0.0
2018-Jun-08 16:00N 44°44' E 037°47'0 0.0
2018-Jun-08 15:30N 44°44' E 037°47'0 0.0
2018-Jun-08 15:00N 44°44' E 037°47'0 0.0
2018-Jun-08 14:30N 44°44' E 037°47'0 0.0
2018-Jun-08 14:00N 44°44' E 037°47'0 0.0
2018-Jun-08 13:30N 44°44' E 037°47'0 0.0
2018-Jun-08 13:00N 44°44' E 037°47'0 0.0
2018-Jun-08 12:30N 44°44' E 037°47'0 0.0
2018-Jun-08 12:00N 44°44' E 037°47'0 0.0
2018-Jun-08 11:30N 44°44' E 037°47'0 0.0
2018-Jun-08 11:00N 44°44' E 037°47'0 0.0
2018-Jun-08 10:30N 44°44' E 037°47'0 0.0
2018-Jun-08 10:00N 44°44' E 037°47'0 0.0
2018-Jun-08 09:30N 44°44' E 037°47'0 0.0
2018-Jun-08 09:00N 44°44' E 037°47'0 0.0
2018-Jun-08 08:30N 44°44' E 037°47'0 0.0
2018-Jun-08 08:00N 44°44' E 037°47'0 0.0
2018-Jun-08 07:30N 44°44' E 037°47'0 0.0
2018-Jun-08 07:00N 44°44' E 037°47'0 0.0
2018-Jun-08 06:30N 44°44' E 037°47'0 0.0
2018-Jun-08 06:00N 44°44' E 037°47'0 0.0
2018-Jun-08 05:30N 44°44' E 037°47'0 0.0
2018-Jun-08 05:00N 44°44' E 037°47'0 0.0
2018-Jun-08 04:30N 44°44' E 037°47'0 0.0
2018-Jun-08 04:00N 44°44' E 037°47'0 0.0
2018-Jun-08 03:30N 44°44' E 037°47'0 0.0
2018-Jun-08 03:00N 44°44' E 037°47'0 0.0
2018-Jun-08 02:30N 44°44' E 037°47'0 0.0
2018-Jun-08 02:00N 44°44' E 037°47'0 0.0
2018-Jun-08 01:30N 44°44' E 037°47'0 0.0
2018-Jun-08 01:00N 44°44' E 037°47'0 0.0
2018-Jun-08 00:30N 44°44' E 037°47'0 0.0
2018-Jun-08 00:00N 44°44' E 037°47'0 0.0
2018-Jun-07 23:30N 44°44' E 037°47'0 0.0
2018-Jun-07 23:00N 44°44' E 037°47'0 0.0
2018-Jun-07 22:30N 44°44' E 037°47'0 0.0
2018-Jun-07 22:00N 44°44' E 037°47'0 0.0
2018-Jun-07 21:30N 44°44' E 037°47'0 0.0
2018-Jun-07 21:00N 44°44' E 037°47'0 0.0
2018-Jun-07 20:30N 44°44' E 037°47'0 0.0
2018-Jun-07 20:00N 44°44' E 037°47'0 0.0
2018-Jun-07 19:30N 44°44' E 037°47'0 0.0
2018-Jun-07 19:00N 44°44' E 037°47'0 0.0
2018-Jun-07 18:30N 44°44' E 037°47'0 0.0
2018-Jun-07 18:00N 44°44' E 037°47'0 0.0
2018-Jun-07 17:30N 44°44' E 037°47'0 0.0
2018-Jun-07 17:00N 44°44' E 037°47'0 0.0
2018-Jun-07 16:30N 44°44' E 037°47'0 0.0
2018-Jun-07 16:00N 44°44' E 037°47'1 2.5
2018-Jun-07 15:29N 44°43' E 037°48'5 9.4
2018-Jun-07 15:00N 44°39' E 037°51'2 3.7
2018-Jun-07 14:30N 44°37' E 037°52'3 5.2
2018-Jun-07 14:01N 44°34' E 037°52'2 4.1
2018-Jun-07 13:31N 44°33' E 037°54'2 4.1
2018-Jun-07 13:00N 44°33' E 037°57'0 0.8
2018-Jun-07 12:28N 44°33' E 037°58'0 0.0
2018-Jun-07 11:58N 44°33' E 037°58'0 0.0
2018-Jun-07 11:28N 44°33' E 037°58'0 0.0
2018-Jun-07 10:58N 44°33' E 037°58'0 0.0
2018-Jun-07 10:25N 44°33' E 037°58'0 0.0
2018-Jun-07 09:55N 44°33' E 037°58'0 0.0
2018-Jun-07 09:25N 44°33' E 037°58'0 0.0
2018-Jun-07 08:58N 44°33' E 037°58'0 0.0
2018-Jun-07 08:25N 44°33' E 037°58'0 0.1
2018-Jun-07 07:58N 44°33' E 037°58'0 0.1
2018-Jun-07 07:28N 44°33' E 037°58'0 0.1
2018-Jun-07 06:58N 44°33' E 037°57'0 0.1
2018-Jun-07 06:28N 44°33' E 037°57'0 0.0
2018-Jun-07 05:55N 44°33' E 037°57'0 0.1
2018-Jun-07 05:25N 44°33' E 037°57'0 0.0
2018-Jun-07 04:58N 44°33' E 037°57'0 0.0
2018-Jun-07 04:28N 44°33' E 037°57'0 0.1
2018-Jun-07 03:58N 44°33' E 037°57'0 0.0
2018-Jun-07 03:28N 44°33' E 037°57'0 0.0
2018-Jun-07 02:58N 44°33' E 037°57'0 0.1
2018-Jun-07 02:25N 44°33' E 037°57'0 0.0
2018-Jun-07 01:58N 44°33' E 037°57'0 0.0
2018-Jun-07 01:28N 44°33' E 037°57'0 0.0
2018-Jun-07 00:55N 44°33' E 037°57'  
Track history (hours):
 
Tides and Currents Weather Stations Pressure Air Temp Water Temp Dewpoint Dewpoint Depression Visibility Wind Speed Wind Dir Waves Ship Positions

Songa Wave

Last reported at 2018-Jun-17 00:47 UTC. Time now 2018-Jun-23 21:38 UTC.
Position N 37°22' E 025°55'.

Length 200 m; draft 12.5 m.

Type: Cargo ship. MMSI: 319116900.

Date/timePositionNaut miles runAvg speedWind from/ knotsBaromVisibWave heightAir tempDewpointWater temp
2018-Jun-17 00:47N 37°22' E 025°55'412.6
2018-Jun-17 00:30N 37°25' E 025°53'612.3
2018-Jun-16 23:59N 37°31' E 025°50'1312.4
2018-Jun-16 22:57N 37°44' E 025°48'25310.3
2018-Jun-15 22:26N 41°07' E 029°04'5 9.2
2018-Jun-15 21:50N 41°12' E 029°07'310.4
2018-Jun-15 21:30N 41°15' E 029°08'8 8.5
2018-Jun-15 20:36N 41°22' E 029°04'3 8.9
2018-Jun-15 20:14N 41°25' E 029°01'2 8.6
2018-Jun-15 20:00N 41°26' E 028°59'3 5.3
2018-Jun-15 19:30N 41°28' E 028°56'0 0.6
2018-Jun-15 19:00N 41°28' E 028°56'0 0.7
2018-Jun-15 18:30N 41°28' E 028°57'0 0.8
2018-Jun-15 18:00N 41°29' E 028°57'0 0.7
2018-Jun-15 17:30N 41°29' E 028°57'0 0.7
2018-Jun-15 17:00N 41°29' E 028°57'0 0.6
2018-Jun-15 16:30N 41°30' E 028°57'0 0.7
2018-Jun-15 16:00N 41°30' E 028°58'0 0.6
2018-Jun-15 15:30N 41°30' E 028°58'0 0.6
2018-Jun-15 15:00N 41°30' E 028°58'0 0.7
2018-Jun-15 14:30N 41°31' E 028°58'0 0.8
2018-Jun-15 14:00N 41°31' E 028°58'1 2.5
2018-Jun-15 13:30N 41°32' E 028°57'5 9.3
2018-Jun-15 12:58N 41°36' E 028°53'1 1.4
2018-Jun-15 12:30N 41°37' E 028°53'0 0.5
2018-Jun-15 12:00N 41°37' E 028°53'0 0.6
2018-Jun-15 11:30N 41°37' E 028°53'0 0.7
2018-Jun-15 11:00N 41°37' E 028°53'0 0.7
2018-Jun-15 10:21N 41°38' E 028°52'0 0.6
2018-Jun-15 10:00N 41°38' E 028°52'0 0.5
2018-Jun-15 09:27N 41°38' E 028°52'0 0.6
2018-Jun-15 08:45N 41°38' E 028°51'88 9.8
2018-Jun-14 23:46N 42°04' E 030°45'312.5
2018-Jun-14 23:29N 42°06' E 030°49'12221.1
2018-Jun-14 17:42N 42°59' E 033°17'5 2.4
2018-Jun-14 15:28N 43°01' E 033°24'1 2.3
2018-Jun-14 14:59N 43°02' E 033°25'1 2.0
2018-Jun-14 14:31N 43°02' E 033°27'1 2.0
2018-Jun-14 13:54N 43°03' E 033°28'11111.3
2018-Jun-14 04:04N 43°52' E 035°46'111.9
2018-Jun-14 04:00N 43°52' E 035°47'6912.4
2018-Jun-13 22:24N 44°22' E 037°14'512.6
2018-Jun-13 22:00N 44°25' E 037°20'612.4
2018-Jun-13 21:30N 44°27' E 037°28'612.4
2018-Jun-13 21:00N 44°30' E 037°36'612.4
2018-Jun-13 20:30N 44°33' E 037°43'612.2
2018-Jun-13 20:00N 44°34' E 037°52'2 4.2
2018-Jun-13 19:30N 44°35' E 037°54'0 0.2
2018-Jun-13 18:57N 44°35' E 037°54'0 0.0
2018-Jun-13 18:30N 44°35' E 037°54'0 0.0
2018-Jun-13 18:00N 44°35' E 037°54'0 0.0
2018-Jun-13 17:30N 44°35' E 037°54'0 0.0
2018-Jun-13 17:00N 44°35' E 037°54'0 0.0
2018-Jun-13 16:30N 44°35' E 037°54'0 0.0
2018-Jun-13 16:00N 44°35' E 037°54'0 0.0
2018-Jun-13 15:27N 44°35' E 037°54'0 0.0
2018-Jun-13 15:00N 44°35' E 037°54'0 0.0
2018-Jun-13 14:30N 44°35' E 037°54'0 0.0
2018-Jun-13 14:00N 44°35' E 037°54'0 0.0
2018-Jun-13 13:30N 44°35' E 037°54'0 0.0
2018-Jun-13 13:00N 44°35' E 037°54'0 0.0
2018-Jun-13 12:30N 44°35' E 037°54'0 0.1
2018-Jun-13 12:00N 44°35' E 037°54'0 0.2
2018-Jun-13 11:30N 44°35' E 037°54'1 1.3
2018-Jun-13 11:00N 44°35' E 037°54'4 7.1
2018-Jun-13 10:30N 44°38' E 037°52'4 9.0
2018-Jun-13 10:00N 44°42' E 037°49'2 3.1
2018-Jun-13 09:31N 44°44' E 037°47'0 0.5
2018-Jun-13 09:00N 44°44' E 037°47'0 0.0
2018-Jun-13 08:30N 44°44' E 037°47'0 0.0
2018-Jun-13 08:00N 44°44' E 037°47'0 0.0
2018-Jun-13 07:30N 44°44' E 037°47'0 0.0
2018-Jun-13 07:00N 44°44' E 037°47'0 0.0
2018-Jun-13 06:30N 44°44' E 037°47'0 0.0
2018-Jun-13 06:00N 44°44' E 037°47'0 0.0
2018-Jun-13 05:30N 44°44' E 037°47'0 0.0
2018-Jun-13 05:00N 44°44' E 037°47'0 0.0
2018-Jun-13 04:30N 44°44' E 037°47'0 0.0
2018-Jun-13 04:00N 44°44' E 037°47'0 0.0
2018-Jun-13 03:30N 44°44' E 037°47'0 0.0
2018-Jun-13 03:00N 44°44' E 037°47'0 0.0
2018-Jun-13 02:30N 44°44' E 037°47'0 0.0
2018-Jun-13 02:00N 44°44' E 037°47'0 0.0
2018-Jun-13 01:30N 44°44' E 037°47'0 0.0
2018-Jun-13 01:00N 44°44' E 037°47'0 0.0
2018-Jun-13 00:30N 44°44' E 037°47'0 0.0
2018-Jun-13 00:00N 44°44' E 037°47'0 0.0
2018-Jun-12 23:30N 44°44' E 037°47'0 0.0
2018-Jun-12 23:00N 44°44' E 037°47'0 0.0
2018-Jun-12 22:30N 44°44' E 037°47'0 0.0
2018-Jun-12 22:00N 44°44' E 037°47'0 0.0
2018-Jun-12 21:30N 44°44' E 037°47'0 0.0
2018-Jun-12 21:00N 44°44' E 037°47'0 0.0
2018-Jun-12 20:30N 44°44' E 037°47'0 0.0
2018-Jun-12 20:00N 44°44' E 037°47'0 0.0
2018-Jun-12 19:30N 44°44' E 037°47'0 0.0
2018-Jun-12 19:00N 44°44' E 037°47'0 0.0
2018-Jun-12 18:30N 44°44' E 037°47'0 0.0
2018-Jun-12 18:00N 44°44' E 037°47'0 0.0
2018-Jun-12 17:30N 44°44' E 037°47'0 0.0
2018-Jun-12 17:00N 44°44' E 037°47'0 0.0
2018-Jun-12 16:30N 44°44' E 037°47'0 0.0
2018-Jun-12 16:00N 44°44' E 037°47'0 0.0
2018-Jun-12 15:30N 44°44' E 037°47'0 0.0
2018-Jun-12 15:00N 44°44' E 037°47'0 0.0
2018-Jun-12 14:30N 44°44' E 037°47'0 0.0
2018-Jun-12 14:00N 44°44' E 037°47'0 0.0
2018-Jun-12 13:30N 44°44' E 037°47'0 0.0
2018-Jun-12 13:00N 44°44' E 037°47'0 0.0
2018-Jun-12 12:30N 44°44' E 037°47'0 0.0
2018-Jun-12 12:00N 44°44' E 037°47'0 0.0
2018-Jun-12 11:30N 44°44' E 037°47'0 0.0
2018-Jun-12 11:00N 44°44' E 037°47'0 0.0
2018-Jun-12 10:30N 44°44' E 037°47'0 0.0
2018-Jun-12 10:00N 44°44' E 037°47'0 0.0
2018-Jun-12 09:30N 44°44' E 037°47'0 0.0
2018-Jun-12 08:57N 44°44' E 037°47'0 0.0
2018-Jun-12 08:30N 44°44' E 037°47'0 0.0
2018-Jun-12 07:57N 44°44' E 037°47'0 0.0
2018-Jun-12 07:30N 44°44' E 037°47'0 0.0
2018-Jun-12 07:00N 44°44' E 037°47'0 0.0
2018-Jun-12 06:30N 44°44' E 037°47'0 0.0
2018-Jun-12 06:00N 44°44' E 037°47'0 0.0
2018-Jun-12 05:30N 44°44' E 037°47'0 0.0
2018-Jun-12 05:00N 44°44' E 037°47'0 0.0
2018-Jun-12 04:27N 44°44' E 037°47'0 0.0
2018-Jun-12 04:00N 44°44' E 037°47'0 0.0
2018-Jun-12 03:30N 44°44' E 037°47'0 0.0
2018-Jun-12 03:00N 44°44' E 037°47'0 0.0
2018-Jun-12 02:30N 44°44' E 037°47'0 0.0
2018-Jun-12 02:00N 44°44' E 037°47'0 0.0
2018-Jun-12 01:30N 44°44' E 037°47'0 0.0
2018-Jun-12 01:00N 44°44' E 037°47'0 0.0
2018-Jun-12 00:30N 44°44' E 037°47'0 0.0
2018-Jun-12 00:00N 44°44' E 037°47'0 0.0
2018-Jun-11 23:30N 44°44' E 037°47'0 0.0
2018-Jun-11 23:00N 44°44' E 037°47'0 0.0
2018-Jun-11 22:30N 44°44' E 037°47'0 0.0
2018-Jun-11 22:00N 44°44' E 037°47'0 0.0
2018-Jun-11 21:30N 44°44' E 037°47'0 0.0
2018-Jun-11 21:00N 44°44' E 037°47'0 0.0
2018-Jun-11 20:27N 44°44' E 037°47'0 0.0
2018-Jun-11 20:00N 44°44' E 037°47'0 0.0
2018-Jun-11 19:30N 44°44' E 037°47'0 0.0
2018-Jun-11 19:00N 44°44' E 037°47'0 0.0
2018-Jun-11 18:27N 44°44' E 037°47'0 0.0
2018-Jun-11 18:00N 44°44' E 037°47'0 0.0
2018-Jun-11 17:30N 44°44' E 037°47'0 0.0
2018-Jun-11 17:00N 44°44' E 037°47'0 0.0
2018-Jun-11 16:30N 44°44' E 037°47'0 0.0
2018-Jun-11 16:00N 44°44' E 037°47'0 0.0
2018-Jun-11 15:30N 44°44' E 037°47'0 0.0
2018-Jun-11 15:00N 44°44' E 037°47'0 0.0
2018-Jun-11 14:30N 44°44' E 037°47'0 0.0
2018-Jun-11 14:00N 44°44' E 037°47'0 0.0
2018-Jun-11 13:30N 44°44' E 037°47'0 0.0
2018-Jun-11 13:00N 44°44' E 037°47'0 0.0
2018-Jun-11 12:30N 44°44' E 037°47'0 0.0
2018-Jun-11 12:00N 44°44' E 037°47'0 0.0
2018-Jun-11 11:30N 44°44' E 037°47'0 0.0
2018-Jun-11 11:00N 44°44' E 037°47'0 0.0
2018-Jun-11 10:30N 44°44' E 037°47'0 0.0
2018-Jun-11 10:00N 44°44' E 037°47'0 0.0
2018-Jun-11 09:30N 44°44' E 037°47'0 0.0
2018-Jun-11 09:00N 44°44' E 037°47'0 0.0
2018-Jun-11 08:30N 44°44' E 037°47'0 0.0
2018-Jun-11 08:00N 44°44' E 037°47'0 0.0
2018-Jun-11 07:30N 44°44' E 037°47'0 0.0
2018-Jun-11 07:00N 44°44' E 037°47'0 0.0
2018-Jun-11 06:30N 44°44' E 037°47'0 0.0
2018-Jun-11 06:00N 44°44' E 037°47'0 0.0
2018-Jun-11 05:30N 44°44' E 037°47'0 0.0
2018-Jun-11 05:00N 44°44' E 037°47'0 0.0
2018-Jun-11 04:30N 44°44' E 037°47'0 0.0
2018-Jun-11 04:00N 44°44' E 037°47'0 0.0
2018-Jun-11 03:30N 44°44' E 037°47'0 0.0
2018-Jun-11 03:00N 44°44' E 037°47'0 0.0
2018-Jun-11 02:30N 44°44' E 037°47'0 0.0
2018-Jun-11 02:00N 44°44' E 037°47'0 0.0
2018-Jun-11 01:30N 44°44' E 037°47'0 0.0
2018-Jun-11 01:00N 44°44' E 037°47'0 0.0
2018-Jun-11 00:30N 44°44' E 037°47'0 0.0
2018-Jun-11 00:00N 44°44' E 037°47'0 0.0
2018-Jun-10 23:30N 44°44' E 037°47'0 0.0
2018-Jun-10 23:00N 44°44' E 037°47'0 0.0
2018-Jun-10 22:30N 44°44' E 037°47'0 0.0
2018-Jun-10 22:00N 44°44' E 037°47'0 0.0
2018-Jun-10 21:30N 44°44' E 037°47'0 0.0
2018-Jun-10 21:00N 44°44' E 037°47'0 0.0
2018-Jun-10 20:30N 44°44' E 037°47'0 0.0
2018-Jun-10 20:00N 44°44' E 037°47'0 0.0
2018-Jun-10 19:30N 44°44' E 037°47'0 0.0
2018-Jun-10 19:00N 44°44' E 037°47'0 0.0
2018-Jun-10 18:30N 44°44' E 037°47'0 0.0
2018-Jun-10 18:00N 44°44' E 037°47'0 0.0
2018-Jun-10 17:30N 44°44' E 037°47'0 0.0
2018-Jun-10 17:00N 44°44' E 037°47'0 0.0
2018-Jun-10 16:27N 44°44' E 037°47'0 0.0
2018-Jun-10 16:00N 44°44' E 037°47'0 0.0
2018-Jun-10 15:30N 44°44' E 037°47'0 0.0
2018-Jun-10 15:00N 44°44' E 037°47'0 0.0
2018-Jun-10 14:30N 44°44' E 037°47'0 0.0
2018-Jun-10 13:30N 44°44' E 037°47'0 0.0
2018-Jun-10 13:00N 44°44' E 037°47'0 0.0
2018-Jun-10 12:30N 44°44' E 037°47'0 0.0
2018-Jun-10 12:00N 44°44' E 037°47'0 0.0
2018-Jun-10 11:30N 44°44' E 037°47'0 0.0
2018-Jun-10 11:00N 44°44' E 037°47'0 0.0
2018-Jun-10 10:30N 44°44' E 037°47'0 0.0
2018-Jun-10 10:00N 44°44' E 037°47'0 0.0
2018-Jun-10 09:30N 44°44' E 037°47'0 0.0
2018-Jun-10 09:00N 44°44' E 037°47'0 0.0
2018-Jun-10 08:30N 44°44' E 037°47'0 0.0
2018-Jun-10 08:00N 44°44' E 037°47'0 0.0
2018-Jun-10 07:30N 44°44' E 037°47'0 0.0
2018-Jun-10 07:00N 44°44' E 037°47'0 0.0
2018-Jun-10 06:27N 44°44' E 037°47'0 0.0
2018-Jun-10 06:00N 44°44' E 037°47'0 0.0
2018-Jun-10 05:30N 44°44' E 037°47'0 0.0
2018-Jun-10 05:00N 44°44' E 037°47'0 0.0
2018-Jun-10 04:30N 44°44' E 037°47'0 0.0
2018-Jun-10 04:00N 44°44' E 037°47'0 0.0
2018-Jun-10 03:30N 44°44' E 037°47'0 0.0
2018-Jun-10 03:00N 44°44' E 037°47'0 0.0
2018-Jun-10 02:30N 44°44' E 037°47'0 0.0
2018-Jun-10 02:00N 44°44' E 037°47'0 0.0
2018-Jun-10 01:30N 44°44' E 037°47'0 0.0
2018-Jun-10 01:00N 44°44' E 037°47'0 0.0
2018-Jun-10 00:30N 44°44' E 037°47'0 0.0
2018-Jun-10 00:00N 44°44' E 037°47'0 0.0
2018-Jun-09 23:30N 44°44' E 037°47'0 0.0
2018-Jun-09 23:00N 44°44' E 037°47'0 0.0
2018-Jun-09 22:27N 44°44' E 037°47'0 0.0
2018-Jun-09 22:00N 44°44' E 037°47'0 0.0
2018-Jun-09 21:30N 44°44' E 037°47'0 0.0
2018-Jun-09 21:00N 44°44' E 037°47'0 0.0
2018-Jun-09 20:27N 44°44' E 037°47'0 0.0
2018-Jun-09 20:00N 44°44' E 037°47'0 0.0
2018-Jun-09 19:30N 44°44' E 037°47'0 0.0
2018-Jun-09 19:00N 44°44' E 037°47'0 0.0
2018-Jun-09 18:30N 44°44' E 037°47'0 0.0
2018-Jun-09 18:00N 44°44' E 037°47'0 0.0
2018-Jun-09 17:30N 44°44' E 037°47'0 0.0
2018-Jun-09 17:00N 44°44' E 037°47'0 0.0
2018-Jun-09 16:30N 44°44' E 037°47'0 0.0
2018-Jun-09 16:00N 44°44' E 037°47'0 0.0
2018-Jun-09 15:30N 44°44' E 037°47'0 0.0
2018-Jun-09 14:30N 44°44' E 037°47'0 0.0
2018-Jun-09 14:00N 44°44' E 037°47'0 0.0
2018-Jun-09 13:30N 44°44' E 037°47'0 0.0
2018-Jun-09 13:00N 44°44' E 037°47'0 0.0
2018-Jun-09 12:30N 44°44' E 037°47'0 0.0
2018-Jun-09 12:00N 44°44' E 037°47'0 0.0
2018-Jun-09 11:30N 44°44' E 037°47'0 0.0
2018-Jun-09 11:00N 44°44' E 037°47'0 0.0
2018-Jun-09 10:27N 44°44' E 037°47'0 0.0
2018-Jun-09 10:00N 44°44' E 037°47'0 0.0
2018-Jun-09 09:30N 44°44' E 037°47'0 0.0
2018-Jun-09 08:57N 44°44' E 037°47'0 0.0
2018-Jun-09 08:30N 44°44' E 037°47'0 0.0
2018-Jun-09 08:00N 44°44' E 037°47'0 0.0
2018-Jun-09 07:30N 44°44' E 037°47'0 0.0
2018-Jun-09 07:00N 44°44' E 037°47'0 0.0
2018-Jun-09 06:30N 44°44' E 037°47'0 0.0
2018-Jun-09 06:00N 44°44' E 037°47'0 0.0
2018-Jun-09 05:30N 44°44' E 037°47'0 0.0
2018-Jun-09 05:00N 44°44' E 037°47'0 0.0
2018-Jun-09 04:30N 44°44' E 037°47'0 0.0
2018-Jun-09 04:00N 44°44' E 037°47'0 0.0
2018-Jun-09 03:30N 44°44' E 037°47'0 0.0
2018-Jun-09 03:00N 44°44' E 037°47'0 0.0
2018-Jun-09 02:30N 44°44' E 037°47'0 0.0
2018-Jun-09 01:54N 44°44' E 037°47'0 0.0
2018-Jun-09 01:30N 44°44' E 037°47'0 0.0
2018-Jun-09 01:00N 44°44' E 037°47'0 0.0
2018-Jun-09 00:30N 44°44' E 037°47'0 0.0
2018-Jun-09 00:00N 44°44' E 037°47'0 0.0
2018-Jun-08 23:30N 44°44' E 037°47'0 0.0
2018-Jun-08 23:00N 44°44' E 037°47'0 0.0
2018-Jun-08 22:30N 44°44' E 037°47'0 0.0
2018-Jun-08 22:00N 44°44' E 037°47'0 0.0
2018-Jun-08 21:30N 44°44' E 037°47'0 0.0
2018-Jun-08 20:54N 44°44' E 037°47'0 0.0
2018-Jun-08 20:30N 44°44' E 037°47'0 0.0
2018-Jun-08 20:00N 44°44' E 037°47'0 0.0
2018-Jun-08 19:30N 44°44' E 037°47'0 0.0
2018-Jun-08 19:00N 44°44' E 037°47'0 0.0
2018-Jun-08 18:30N 44°44' E 037°47'0 0.0
2018-Jun-08 18:00N 44°44' E 037°47'0 0.0
2018-Jun-08 17:30N 44°44' E 037°47'0 0.0
2018-Jun-08 17:00N 44°44' E 037°47'0 0.0
2018-Jun-08 16:30N 44°44' E 037°47'0 0.0
2018-Jun-08 16:00N 44°44' E 037°47'0 0.0
2018-Jun-08 15:30N 44°44' E 037°47'0 0.0
2018-Jun-08 15:00N 44°44' E 037°47'0 0.0
2018-Jun-08 14:30N 44°44' E 037°47'0 0.0
2018-Jun-08 14:00N 44°44' E 037°47'0 0.0
2018-Jun-08 13:30N 44°44' E 037°47'0 0.0
2018-Jun-08 13:00N 44°44' E 037°47'0 0.0
2018-Jun-08 12:30N 44°44' E 037°47'0 0.0
2018-Jun-08 12:00N 44°44' E 037°47'0 0.0
2018-Jun-08 11:30N 44°44' E 037°47'0 0.0
2018-Jun-08 11:00N 44°44' E 037°47'0 0.0
2018-Jun-08 10:30N 44°44' E 037°47'0 0.0
2018-Jun-08 10:00N 44°44' E 037°47'0 0.0
2018-Jun-08 09:30N 44°44' E 037°47'0 0.0
2018-Jun-08 09:00N 44°44' E 037°47'0 0.0
2018-Jun-08 08:30N 44°44' E 037°47'0 0.0
2018-Jun-08 08:00N 44°44' E 037°47'0 0.0
2018-Jun-08 07:30N 44°44' E 037°47'0 0.0
2018-Jun-08 07:00N 44°44' E 037°47'0 0.0
2018-Jun-08 06:30N 44°44' E 037°47'0 0.0
2018-Jun-08 06:00N 44°44' E 037°47'0 0.0
2018-Jun-08 05:30N 44°44' E 037°47'0 0.0
2018-Jun-08 05:00N 44°44' E 037°47'0 0.0
2018-Jun-08 04:30N 44°44' E 037°47'0 0.0
2018-Jun-08 04:00N 44°44' E 037°47'0 0.0
2018-Jun-08 03:30N 44°44' E 037°47'0 0.0
2018-Jun-08 03:00N 44°44' E 037°47'0 0.0
2018-Jun-08 02:30N 44°44' E 037°47'0 0.0
2018-Jun-08 02:00N 44°44' E 037°47'0 0.0
2018-Jun-08 01:30N 44°44' E 037°47'0 0.0
2018-Jun-08 01:00N 44°44' E 037°47'0 0.0
2018-Jun-08 00:30N 44°44' E 037°47'0 0.0
2018-Jun-08 00:00N 44°44' E 037°47'0 0.0
2018-Jun-07 23:30N 44°44' E 037°47'0 0.0
2018-Jun-07 23:00N 44°44' E 037°47'0 0.0
2018-Jun-07 22:30N 44°44' E 037°47'0 0.0
2018-Jun-07 22:00N 44°44' E 037°47'0 0.0
2018-Jun-07 21:30N 44°44' E 037°47'0 0.0
2018-Jun-07 21:00N 44°44' E 037°47'0 0.0
2018-Jun-07 20:30N 44°44' E 037°47'0 0.0
2018-Jun-07 20:00N 44°44' E 037°47'0 0.0
2018-Jun-07 19:30N 44°44' E 037°47'0 0.0
2018-Jun-07 19:00N 44°44' E 037°47'0 0.0
2018-Jun-07 18:30N 44°44' E 037°47'0 0.0
2018-Jun-07 18:00N 44°44' E 037°47'0 0.0
2018-Jun-07 17:30N 44°44' E 037°47'0 0.0
2018-Jun-07 17:00N 44°44' E 037°47'0 0.0
2018-Jun-07 16:30N 44°44' E 037°47'0 0.0
2018-Jun-07 16:00N 44°44' E 037°47'1 2.5
2018-Jun-07 15:29N 44°43' E 037°48'5 9.4
2018-Jun-07 15:00N 44°39' E 037°51'2 3.7
2018-Jun-07 14:30N 44°37' E 037°52'3 5.2
2018-Jun-07 14:01N 44°34' E 037°52'2 4.1
2018-Jun-07 13:31N 44°33' E 037°54'2 4.1
2018-Jun-07 13:00N 44°33' E 037°57'0 0.8
2018-Jun-07 12:28N 44°33' E 037°58'0 0.0
2018-Jun-07 11:58N 44°33' E 037°58'0 0.0
2018-Jun-07 11:28N 44°33' E 037°58'0 0.0
2018-Jun-07 10:58N 44°33' E 037°58'0 0.0
2018-Jun-07 10:25N 44°33' E 037°58'0 0.0
2018-Jun-07 09:55N 44°33' E 037°58'0 0.0
2018-Jun-07 09:25N 44°33' E 037°58'0 0.0
2018-Jun-07 08:58N 44°33' E 037°58'0 0.0
2018-Jun-07 08:25N 44°33' E 037°58'0 0.1
2018-Jun-07 07:58N 44°33' E 037°58'0 0.1
2018-Jun-07 07:28N 44°33' E 037°58'0 0.1
2018-Jun-07 06:58N 44°33' E 037°57'0 0.1
2018-Jun-07 06:28N 44°33' E 037°57'0 0.0
2018-Jun-07 05:55N 44°33' E 037°57'0 0.1
2018-Jun-07 05:25N 44°33' E 037°57'0 0.0
2018-Jun-07 04:58N 44°33' E 037°57'0 0.0
2018-Jun-07 04:28N 44°33' E 037°57'0 0.1
2018-Jun-07 03:58N 44°33' E 037°57'0 0.0
2018-Jun-07 03:28N 44°33' E 037°57'0 0.0
2018-Jun-07 02:58N 44°33' E 037°57'0 0.1
2018-Jun-07 02:25N 44°33' E 037°57'0 0.0
2018-Jun-07 01:58N 44°33' E 037°57'0 0.0
2018-Jun-07 01:28N 44°33' E 037°57'0 0.0
2018-Jun-07 00:55N 44°33' E 037°57'  

Dump ship's entire track history